createdAt,value
2019-02-17T00:02:37.054Z,-2.15
2019-02-17T00:05:42.234Z,-2.10
2019-02-17T00:08:47.432Z,-2.10
2019-02-17T00:11:52.608Z,-1.94
2019-02-17T00:14:57.808Z,-1.80
2019-02-17T00:18:02.935Z,-1.77
2019-02-17T00:21:08.130Z,-1.85
2019-02-17T00:24:13.343Z,-2.06
2019-02-17T00:27:18.496Z,-2.19
2019-02-17T00:30:23.671Z,-2.30
2019-02-17T00:33:28.830Z,-2.21
2019-02-17T00:36:34.021Z,-1.94
2019-02-17T00:39:39.201Z,-2.02
2019-02-17T00:42:44.590Z,-2.16
2019-02-17T00:45:50.819Z,-2.21
2019-02-17T00:48:56.032Z,-2.28
2019-02-17T00:52:01.146Z,-2.44
2019-02-17T00:55:06.464Z,-2.48
2019-02-17T00:58:11.691Z,-2.50
2019-02-17T01:01:16.869Z,-2.42
2019-02-17T01:04:22.006Z,-2.58
2019-02-17T01:07:27.106Z,-2.62
2019-02-17T01:10:32.248Z,-2.59
2019-02-17T01:13:37.414Z,-2.63
2019-02-17T01:16:42.581Z,-2.67
2019-02-17T01:19:47.783Z,-2.59
2019-02-17T01:22:52.900Z,-2.54
2019-02-17T01:25:58.094Z,-2.45
2019-02-17T01:29:03.211Z,-2.30
2019-02-17T01:32:08.462Z,-2.14
2019-02-17T01:35:13.945Z,-2.07
2019-02-17T01:38:19.182Z,-2.04
2019-02-17T01:41:24.403Z,-2.21
2019-02-17T01:44:29.528Z,-2.15
2019-02-17T01:47:34.662Z,-2.11
2019-02-17T01:50:39.809Z,-2.16
2019-02-17T01:53:45.002Z,-1.90
2019-02-17T01:56:50.168Z,-1.83
2019-02-17T01:59:55.407Z,-1.96
2019-02-17T02:03:00.640Z,-2.22
2019-02-17T02:06:05.804Z,-2.26
2019-02-17T02:09:11.331Z,-2.32
2019-02-17T02:12:16.491Z,-2.49
2019-02-17T02:15:21.619Z,-2.54
2019-02-17T02:18:26.885Z,-2.63
2019-02-17T02:21:31.982Z,-2.66
2019-02-17T02:24:37.103Z,-2.68
2019-02-17T02:27:42.245Z,-2.64
2019-02-17T02:30:47.422Z,-2.75
2019-02-17T02:33:52.630Z,-2.73
2019-02-17T02:36:57.785Z,-2.70
2019-02-17T02:40:02.973Z,-2.79
2019-02-17T02:43:08.083Z,-2.89
2019-02-17T02:46:13.187Z,-3.01
2019-02-17T02:49:18.427Z,-2.86
2019-02-17T02:52:23.604Z,-3.00
2019-02-17T02:55:28.864Z,-2.96
2019-02-17T02:58:34.024Z,-2.98
2019-02-17T03:01:39.198Z,-2.92
2019-02-17T03:04:44.373Z,-2.89
2019-02-17T03:07:49.562Z,-2.97
2019-02-17T03:10:54.650Z,-3.02
2019-02-17T03:13:59.730Z,-3.06
2019-02-17T03:17:04.847Z,-3.04
2019-02-17T03:20:10.395Z,-3.17
2019-02-17T03:23:15.556Z,-3.16
2019-02-17T03:26:20.692Z,-3.19
2019-02-17T03:29:25.874Z,-3.23
2019-02-17T03:32:31.082Z,-3.27
2019-02-17T03:35:36.325Z,-3.30
2019-02-17T03:38:41.541Z,-3.33
2019-02-17T03:41:46.655Z,-3.12
2019-02-17T03:44:51.829Z,-2.81
2019-02-17T03:47:57.011Z,-2.72
2019-02-17T03:51:02.160Z,-2.63
2019-02-17T03:54:07.308Z,-2.68
2019-02-17T03:57:12.581Z,-2.71
2019-02-17T04:00:17.775Z,-2.77
2019-02-17T04:03:22.932Z,-2.79
2019-02-17T04:06:28.112Z,-2.66
2019-02-17T04:09:33.269Z,-2.66
2019-02-17T04:12:38.418Z,-2.58
2019-02-17T04:15:43.573Z,-2.53
2019-02-17T04:18:48.721Z,-2.52
2019-02-17T04:21:53.940Z,-2.53
2019-02-17T04:24:59.084Z,-2.51
2019-02-17T04:28:04.242Z,-2.58
2019-02-17T04:31:09.391Z,-2.62
2019-02-17T04:34:14.627Z,-2.73
2019-02-17T04:37:19.793Z,-2.54
2019-02-17T04:40:24.938Z,-2.63
2019-02-17T04:43:30.062Z,-2.55
2019-02-17T04:46:35.193Z,-2.53
2019-02-17T04:49:40.354Z,-2.52
2019-02-17T04:52:45.488Z,-2.60
2019-02-17T04:55:50.655Z,-2.65
2019-02-17T04:58:55.851Z,-2.71
2019-02-17T05:02:01.014Z,-2.70
2019-02-17T05:05:06.358Z,-2.75
2019-02-17T05:08:11.487Z,-2.81
2019-02-17T05:11:16.630Z,-2.89
2019-02-17T05:14:21.747Z,-2.85
2019-02-17T05:17:26.904Z,-2.89
2019-02-17T05:20:32.080Z,-2.87
2019-02-17T05:23:37.208Z,-2.86
2019-02-17T05:26:42.385Z,-2.82
2019-02-17T05:29:47.521Z,-2.79
2019-02-17T05:32:54.276Z,-2.83
2019-02-17T05:36:01.767Z,-2.85
2019-02-17T05:39:07.230Z,-2.69
2019-02-17T05:42:12.345Z,-2.75
2019-02-17T05:45:17.500Z,-2.83
2019-02-17T05:48:22.682Z,-2.76
2019-02-17T05:51:27.986Z,-2.84
2019-02-17T05:54:33.173Z,-2.79
2019-02-17T05:57:38.353Z,-2.82
2019-02-17T06:00:43.500Z,-2.70
2019-02-17T06:03:48.628Z,-2.65
2019-02-17T06:06:53.768Z,-2.68
2019-02-17T06:09:58.887Z,-2.72
2019-02-17T06:13:04.127Z,-2.80
2019-02-17T06:16:09.283Z,-2.80
2019-02-17T06:19:14.495Z,-2.81
2019-02-17T06:22:19.641Z,-2.78
2019-02-17T06:25:24.933Z,-2.76
2019-02-17T06:28:31.318Z,-2.71
2019-02-17T06:31:36.524Z,-2.68
2019-02-17T06:34:41.666Z,-2.65
2019-02-17T06:37:46.915Z,-2.64
2019-02-17T06:40:52.457Z,-2.63
2019-02-17T06:43:57.682Z,-2.58
2019-02-17T06:47:05.644Z,-2.57
2019-02-17T06:50:11.248Z,-2.34
2019-02-17T06:53:16.422Z,-2.41
2019-02-17T06:56:27.682Z,-2.35
2019-02-17T06:59:32.775Z,-2.44
2019-02-17T07:02:37.936Z,-2.25
2019-02-17T07:05:54.243Z,-2.34
2019-02-17T07:08:59.440Z,-2.30
2019-02-17T07:12:04.636Z,-2.42
2019-02-17T07:15:09.812Z,-2.21
2019-02-17T07:18:16.110Z,-2.28
2019-02-17T07:21:21.246Z,-2.18
2019-02-17T07:24:26.393Z,-2.11
2019-02-17T07:27:32.830Z,-2.06
2019-02-17T07:30:37.961Z,-2.06
2019-02-17T07:33:43.157Z,-2.17
2019-02-17T07:36:48.386Z,-2.13
2019-02-17T07:39:53.613Z,-1.90
2019-02-17T07:42:58.740Z,-1.74
2019-02-17T07:46:03.945Z,-1.82
2019-02-17T07:49:09.068Z,-1.72
2019-02-17T07:52:14.423Z,-1.66
2019-02-17T07:55:19.663Z,-1.63
2019-02-17T07:58:24.906Z,-1.49
2019-02-17T08:01:30.016Z,-1.61
2019-02-17T08:04:35.388Z,-1.25
2019-02-17T08:07:40.567Z,-1.19
2019-02-17T08:10:45.798Z,-1.15
2019-02-17T08:13:51.060Z,-1.27
2019-02-17T08:16:56.216Z,-1.17
2019-02-17T08:20:01.570Z,-1.27
2019-02-17T08:23:06.715Z,-1.29
2019-02-17T08:26:11.856Z,-0.96
2019-02-17T08:29:16.992Z,-1.15
2019-02-17T08:32:23.223Z,-0.67
2019-02-17T08:35:28.446Z,-0.95
2019-02-17T08:38:33.632Z,-0.83
2019-02-17T08:41:40.253Z,-0.58
2019-02-17T08:44:45.716Z,-0.43
2019-02-17T08:47:50.916Z,-0.08
2019-02-17T08:50:56.129Z,-0.08
2019-02-17T08:54:01.316Z,-0.26
2019-02-17T08:57:06.478Z,0.03
2019-02-17T09:00:12.687Z,0.17
2019-02-17T09:03:17.852Z,0.49
2019-02-17T09:06:23.134Z,0.92
2019-02-17T09:09:28.270Z,0.92
2019-02-17T09:12:33.441Z,1.38
2019-02-17T09:15:38.651Z,1.32
2019-02-17T09:18:43.876Z,1.39
2019-02-17T09:21:49.026Z,1.95
2019-02-17T09:24:54.264Z,1.72
2019-02-17T09:27:59.384Z,2.32
2019-02-17T09:31:04.599Z,2.24
2019-02-17T09:34:09.792Z,2.38
2019-02-17T09:37:15.008Z,2.53
2019-02-17T09:40:20.161Z,2.94
2019-02-17T09:43:25.390Z,3.05
2019-02-17T09:46:30.563Z,3.04
2019-02-17T09:49:35.724Z,3.49
2019-02-17T09:52:41.013Z,3.82
2019-02-17T09:55:46.289Z,3.96
2019-02-17T09:58:53.338Z,4.35
2019-02-17T10:01:58.454Z,4.50
2019-02-17T10:05:03.619Z,4.48
2019-02-17T10:08:08.827Z,5.04
2019-02-17T10:11:13.974Z,5.08
2019-02-17T10:14:19.239Z,5.20
2019-02-17T10:17:24.397Z,5.44
2019-02-17T10:20:29.557Z,5.97
2019-02-17T10:23:34.703Z,6.19
2019-02-17T10:26:39.915Z,6.35
2019-02-17T10:29:45.166Z,6.69
2019-02-17T10:32:50.366Z,6.92
2019-02-17T10:35:55.535Z,7.00
2019-02-17T10:39:00.677Z,6.91
2019-02-17T10:42:07.427Z,7.34
2019-02-17T10:45:12.832Z,7.00
2019-02-17T10:48:18.087Z,7.90
2019-02-17T10:51:23.320Z,7.41
2019-02-17T10:54:28.553Z,7.45
2019-02-17T10:57:33.736Z,7.79
2019-02-17T11:00:38.889Z,8.14
2019-02-17T11:04:00.446Z,8.12
2019-02-17T11:07:05.588Z,7.86
2019-02-17T11:10:10.851Z,7.88
2019-02-17T11:13:16.035Z,8.17
2019-02-17T11:16:21.259Z,8.97
2019-02-17T11:19:26.462Z,8.82
2019-02-17T11:22:31.646Z,8.71
2019-02-17T11:25:36.802Z,9.16
2019-02-17T11:28:41.985Z,8.78
2019-02-17T11:31:47.178Z,9.39
2019-02-17T11:34:52.441Z,9.51
2019-02-17T11:37:58.588Z,9.72
2019-02-17T11:41:03.736Z,9.56
2019-02-17T11:44:08.898Z,9.81
2019-02-17T11:47:14.064Z,9.58
2019-02-17T11:50:19.176Z,9.76
2019-02-17T11:53:24.391Z,9.67
2019-02-17T11:56:29.693Z,9.68
2019-02-17T11:59:34.893Z,9.60
2019-02-17T12:02:40.087Z,9.72
2019-02-17T12:05:45.252Z,10.02
2019-02-17T12:08:50.531Z,9.68
2019-02-17T12:11:55.714Z,10.08
2019-02-17T12:15:01.028Z,10.62
2019-02-17T12:18:06.290Z,10.81
2019-02-17T12:21:31.957Z,10.63
2019-02-17T12:24:56.087Z,11.16
2019-02-17T12:28:08.128Z,11.32
2019-02-17T12:31:19.084Z,11.41
2019-02-17T12:34:24.506Z,11.17
2019-02-17T12:37:30.218Z,11.20
2019-02-17T12:40:35.534Z,11.13
2019-02-17T12:43:40.764Z,10.57
2019-02-17T12:46:46.243Z,10.79
2019-02-17T12:49:51.620Z,10.91
2019-02-17T12:52:56.947Z,11.15
2019-02-17T12:56:02.334Z,11.28
2019-02-17T12:59:07.631Z,11.45
2019-02-17T13:02:12.874Z,11.31
2019-02-17T13:05:18.074Z,11.38
2019-02-17T13:08:23.413Z,11.32
2019-02-17T13:11:28.683Z,11.26
2019-02-17T13:14:33.864Z,11.65
2019-02-17T13:17:39.071Z,11.94
2019-02-17T13:20:44.214Z,11.92
2019-02-17T13:23:49.396Z,11.59
2019-02-17T13:26:54.572Z,11.62
2019-02-17T13:29:59.777Z,12.03
2019-02-17T13:33:05.297Z,12.15
2019-02-17T13:36:10.561Z,12.85
2019-02-17T13:39:15.829Z,12.29
2019-02-17T13:42:21.031Z,12.42
2019-02-17T13:45:26.241Z,12.20
2019-02-17T13:48:32.864Z,12.34
2019-02-17T13:51:38.018Z,12.62
2019-02-17T13:54:43.298Z,12.77
2019-02-17T13:57:48.465Z,12.55
2019-02-17T14:00:53.702Z,12.26
2019-02-17T14:03:58.849Z,12.69
2019-02-17T14:07:04.034Z,13.10
2019-02-17T14:10:10.228Z,12.89
2019-02-17T14:13:15.377Z,13.21
2019-02-17T14:16:20.547Z,12.91
2019-02-17T14:19:25.687Z,13.16
2019-02-17T14:22:30.883Z,13.28
2019-02-17T14:25:36.063Z,13.63
2019-02-17T14:28:41.250Z,13.34
2019-02-17T14:31:46.437Z,13.22
2019-02-17T14:34:51.557Z,12.94
2019-02-17T14:37:56.733Z,13.02
2019-02-17T14:41:01.893Z,12.87
2019-02-17T14:44:07.106Z,12.97
2019-02-17T14:47:12.349Z,13.01
2019-02-17T14:50:17.583Z,12.81
2019-02-17T14:53:22.719Z,12.86
2019-02-17T14:56:29.413Z,12.77
2019-02-17T14:59:34.648Z,12.70
2019-02-17T15:02:39.838Z,12.59
2019-02-17T15:05:44.997Z,12.41
2019-02-17T15:08:51.202Z,12.12
2019-02-17T15:11:56.346Z,12.11
2019-02-17T15:15:01.529Z,11.86
2019-02-17T15:18:08.174Z,11.66
2019-02-17T15:21:13.305Z,11.58
2019-02-17T15:24:18.419Z,11.39
2019-02-17T15:27:23.623Z,11.20
2019-02-17T15:30:28.782Z,11.06
2019-02-17T15:33:34.026Z,10.97
2019-02-17T15:36:39.175Z,10.74
2019-02-17T15:39:44.367Z,10.57
2019-02-17T15:42:49.494Z,10.42
2019-02-17T15:45:54.726Z,10.18
2019-02-17T15:48:59.880Z,10.22
2019-02-17T15:52:05.159Z,9.97
2019-02-17T15:55:10.413Z,9.87
2019-02-17T15:58:15.595Z,9.80
2019-02-17T16:01:20.779Z,9.71
2019-02-17T16:04:28.472Z,9.74
2019-02-17T16:07:32.796Z,9.51
2019-02-17T16:10:37.980Z,9.24
2019-02-17T16:13:43.116Z,9.06
2019-02-17T16:16:48.339Z,8.92
2019-02-17T16:19:53.525Z,8.69
2019-02-17T16:22:58.818Z,8.57
2019-02-17T16:26:03.960Z,8.28
2019-02-17T16:29:09.223Z,8.03
2019-02-17T16:32:14.355Z,7.72
2019-02-17T16:35:19.498Z,7.50
2019-02-17T16:38:24.924Z,7.32
2019-02-17T16:41:30.105Z,7.14
2019-02-17T16:44:36.253Z,6.89
2019-02-17T16:47:41.615Z,6.82
2019-02-17T16:50:46.782Z,6.56
2019-02-17T16:53:52.041Z,6.57
2019-02-17T16:56:57.216Z,6.40
2019-02-17T17:00:02.403Z,6.15
2019-02-17T17:03:07.838Z,6.08
2019-02-17T17:06:14.818Z,5.90
2019-02-17T17:09:20.006Z,5.66
2019-02-17T17:12:25.245Z,5.49
2019-02-17T17:15:30.444Z,5.36
2019-02-17T17:18:35.654Z,5.26
2019-02-17T17:21:40.827Z,5.30
2019-02-17T17:24:46.045Z,5.17
2019-02-17T17:27:58.016Z,5.14
2019-02-17T17:31:03.147Z,4.84
2019-02-17T17:34:08.488Z,5.04
2019-02-17T17:37:13.664Z,4.90
2019-02-17T17:40:18.829Z,4.87
2019-02-17T17:43:24.198Z,4.60
2019-02-17T17:46:29.440Z,4.37
2019-02-17T17:49:34.651Z,4.21
2019-02-17T17:52:39.812Z,4.13
2019-02-17T17:55:44.952Z,4.10
2019-02-17T17:58:50.186Z,4.19
2019-02-17T18:01:55.391Z,4.12
2019-02-17T18:05:08.842Z,3.96
2019-02-17T18:08:09.266Z,3.76
2019-02-17T18:11:14.534Z,3.67
2019-02-17T18:14:19.812Z,3.66
2019-02-17T18:17:24.959Z,3.60
2019-02-17T18:20:30.177Z,3.50
2019-02-17T18:23:35.487Z,3.50
2019-02-17T18:26:40.649Z,3.49
2019-02-17T18:29:45.907Z,3.37
2019-02-17T18:32:51.239Z,3.39
2019-02-17T18:35:56.477Z,3.20
2019-02-17T18:39:01.739Z,3.07
2019-02-17T18:42:08.762Z,2.99
2019-02-17T18:45:13.930Z,2.93
2019-02-17T18:48:19.176Z,2.81
2019-02-17T18:51:24.493Z,2.94
2019-02-17T18:54:30.806Z,2.80
2019-02-17T18:57:36.008Z,2.75
2019-02-17T19:00:41.301Z,2.59
2019-02-17T19:03:46.591Z,2.58
2019-02-17T19:06:51.807Z,2.38
2019-02-17T19:09:57.075Z,2.28
2019-02-17T19:13:02.295Z,2.14
2019-02-17T19:16:07.696Z,2.13
2019-02-17T19:19:13.109Z,2.04
2019-02-17T19:22:18.308Z,2.03
2019-02-17T19:25:23.515Z,2.11
2019-02-17T19:28:28.853Z,1.96
2019-02-17T19:31:36.771Z,1.89
2019-02-17T19:34:41.859Z,1.92
2019-02-17T19:37:47.002Z,1.97
2019-02-17T19:40:52.138Z,1.99
2019-02-17T19:43:57.414Z,1.93
2019-02-17T19:47:02.621Z,1.80
2019-02-17T19:50:09.022Z,1.86
2019-02-17T19:53:14.318Z,1.77
2019-02-17T19:56:19.512Z,1.72
2019-02-17T19:59:24.713Z,1.76
2019-02-17T20:02:45.556Z,1.75
2019-02-17T20:05:54.454Z,1.62
2019-02-17T20:08:59.620Z,1.37
2019-02-17T20:12:04.751Z,1.21
2019-02-17T20:15:09.952Z,1.15
2019-02-17T20:18:15.212Z,1.04
2019-02-17T20:21:20.723Z,0.96
2019-02-17T20:24:25.991Z,0.87
2019-02-17T20:27:31.271Z,1.05
2019-02-17T20:30:36.485Z,1.11
2019-02-17T20:33:41.711Z,1.08
2019-02-17T20:36:46.854Z,0.97
2019-02-17T20:39:52.120Z,0.85
2019-02-17T20:42:57.402Z,0.72
2019-02-17T20:46:02.654Z,0.74
2019-02-17T20:49:07.897Z,0.77
2019-02-17T20:52:13.167Z,0.67
2019-02-17T20:55:18.399Z,0.62
2019-02-17T20:58:23.535Z,0.56
2019-02-17T21:01:28.713Z,0.51
2019-02-17T21:04:33.841Z,0.62
2019-02-17T21:07:39.041Z,0.42
2019-02-17T21:10:44.260Z,0.46
2019-02-17T21:13:49.432Z,0.51
2019-02-17T21:16:54.588Z,0.64
2019-02-17T21:19:59.810Z,0.54
2019-02-17T21:23:05.033Z,0.44
2019-02-17T21:26:10.241Z,0.22
2019-02-17T21:29:15.338Z,0.20
2019-02-17T21:32:20.567Z,-0.01
2019-02-17T21:35:25.786Z,0.04
2019-02-17T21:38:31.212Z,-0.09
2019-02-17T21:41:36.385Z,-0.08
2019-02-17T21:44:41.520Z,-0.07
2019-02-17T21:47:46.707Z,-0.07
2019-02-17T21:50:51.822Z,-0.17
2019-02-17T21:53:58.115Z,-0.25
2019-02-17T21:57:03.427Z,-0.23
2019-02-17T22:00:10.722Z,-0.19
2019-02-17T22:03:16.229Z,-0.13
2019-02-17T22:06:21.431Z,-0.13
2019-02-17T22:09:26.639Z,-0.39
2019-02-17T22:12:31.774Z,-0.46
2019-02-17T22:15:37.043Z,-0.50
2019-02-17T22:18:42.161Z,-0.55
2019-02-17T22:21:47.336Z,-0.35
2019-02-17T22:24:53.092Z,-0.55
2019-02-17T22:27:58.499Z,-0.61
2019-02-17T22:31:03.770Z,-0.56
2019-02-17T22:34:09.027Z,-0.71
2019-02-17T22:37:14.197Z,-0.63
2019-02-17T22:40:19.382Z,-0.62
2019-02-17T22:43:24.520Z,-0.74
2019-02-17T22:46:29.887Z,-0.60
2019-02-17T22:49:35.065Z,-0.73
2019-02-17T22:52:40.336Z,-0.83
2019-02-17T22:55:45.599Z,-0.94
2019-02-17T22:58:50.802Z,-0.83
2019-02-17T23:01:56.367Z,-0.83
2019-02-17T23:05:01.601Z,-0.70
2019-02-17T23:08:07.292Z,-0.73
2019-02-17T23:11:12.489Z,-0.37
2019-02-17T23:14:17.831Z,-0.20
2019-02-17T23:17:23.108Z,-0.51
2019-02-17T23:20:28.350Z,-0.71
2019-02-17T23:23:33.590Z,-0.72
2019-02-17T23:26:38.857Z,-0.93
2019-02-17T23:29:44.047Z,-0.96
2019-02-17T23:32:49.306Z,-1.07
2019-02-17T23:35:54.502Z,-1.09
2019-02-17T23:39:01.959Z,-1.03
2019-02-17T23:42:08.765Z,-0.96
2019-02-17T23:45:14.031Z,-0.77
2019-02-17T23:48:19.206Z,-0.99
2019-02-17T23:51:24.428Z,-1.19
2019-02-17T23:54:29.674Z,-1.20
2019-02-17T23:57:34.866Z,-1.30
